sensor_id;sensor_type;location;lat;lon;timestamp;temperature;humidity
37322;DHT22;23697;48.684;9.032;2023-07-29T00:02:00;16.60;91.40
37322;DHT22;23697;48.684;9.032;2023-07-29T00:04:37;16.60;91.50
37322;DHT22;23697;48.684;9.032;2023-07-29T00:07:47;16.60;91.50
37322;DHT22;23697;48.684;9.032;2023-07-29T00:10:31;16.60;91.50
37322;DHT22;23697;48.684;9.032;2023-07-29T00:13:16;16.60;91.40
37322;DHT22;23697;48.684;9.032;2023-07-29T09:52:53;22.70;81.30
37322;DHT22;23697;48.684;9.032;2023-07-29T10:41:56;25.30;65.80
37322;DHT22;23697;48.684;9.032;2023-07-29T10:47:11;24.60;62.40
37322;DHT22;23697;48.684;9.032;2023-07-29T10:49:39;24.60;64.50
37322;DHT22;23697;48.684;9.032;2023-07-29T10:52:06;24.80;66.80
37322;DHT22;23697;48.684;9.032;2023-07-29T10:54:36;25.10;62.20
37322;DHT22;23697;48.684;9.032;2023-07-29T10:57:09;25.50;61.90
37322;DHT22;23697;48.684;9.032;2023-07-29T10:59:39;25.60;62.60
37322;DHT22;23697;48.684;9.032;2023-07-29T11:02:11;25.60;58.10
37322;DHT22;23697;48.684;9.032;2023-07-29T11:04:45;26.00;60.60
37322;DHT22;23697;48.684;9.032;2023-07-29T11:07:22;26.10;61.10
37322;DHT22;23697;48.684;9.032;2023-07-29T11:09:55;25.90;56.60
37322;DHT22;23697;48.684;9.032;2023-07-29T11:12:37;25.70;57.90
37322;DHT22;23697;48.684;9.032;2023-07-29T11:15:04;25.70;57.80
37322;DHT22;23697;48.684;9.032;2023-07-29T11:17:32;25.60;56.10
37322;DHT22;23697;48.684;9.032;2023-07-29T11:19:59;25.50;57.20
37322;DHT22;23697;48.684;9.032;2023-07-29T11:22:26;25.50;60.90
37322;DHT22;23697;48.684;9.032;2023-07-29T11:24:53;25.50;60.70
37322;DHT22;23697;48.684;9.032;2023-07-29T11:27:20;25.40;57.00
37322;DHT22;23697;48.684;9.032;2023-07-29T11:29:48;25.00;59.10
37322;DHT22;23697;48.684;9.032;2023-07-29T11:32:15;24.90;58.80
37322;DHT22;23697;48.684;9.032;2023-07-29T11:34:42;25.00;60.60
37322;DHT22;23697;48.684;9.032;2023-07-29T11:37:10;25.00;60.50
37322;DHT22;23697;48.684;9.032;2023-07-29T11:39:39;25.10;58.90
37322;DHT22;23697;48.684;9.032;2023-07-29T11:42:06;25.00;58.90
37322;DHT22;23697;48.684;9.032;2023-07-29T11:44:32;25.20;54.00
37322;DHT22;23697;48.684;9.032;2023-07-29T11:47:00;25.10;54.80
37322;DHT22;23697;48.684;9.032;2023-07-29T11:49:27;25.30;55.80
37322;DHT22;23697;48.684;9.032;2023-07-29T11:51:54;25.20;56.50
37322;DHT22;23697;48.684;9.032;2023-07-29T11:54:20;25.10;54.90
37322;DHT22;23697;48.684;9.032;2023-07-29T11:56:47;25.00;54.90
37322;DHT22;23697;48.684;9.032;2023-07-29T11:59:14;24.80;54.90
37322;DHT22;23697;48.684;9.032;2023-07-29T12:01:40;24.70;54.70
37322;DHT22;23697;48.684;9.032;2023-07-29T12:04:08;24.70;59.20
37322;DHT22;23697;48.684;9.032;2023-07-29T12:06:35;24.80;55.40
37322;DHT22;23697;48.684;9.032;2023-07-29T12:09:03;24.80;56.00
37322;DHT22;23697;48.684;9.032;2023-07-29T12:11:31;24.70;55.30
37322;DHT22;23697;48.684;9.032;2023-07-29T12:13:59;24.70;54.20
37322;DHT22;23697;48.684;9.032;2023-07-29T12:16:25;24.60;57.60
37322;DHT22;23697;48.684;9.032;2023-07-29T12:18:59;24.80;56.40
37322;DHT22;23697;48.684;9.032;2023-07-29T12:21:27;25.10;55.90
37322;DHT22;23697;48.684;9.032;2023-07-29T12:23:55;25.20;56.20
37322;DHT22;23697;48.684;9.032;2023-07-29T12:26:26;25.40;56.20
37322;DHT22;23697;48.684;9.032;2023-07-29T12:28:53;25.20;56.90
37322;DHT22;23697;48.684;9.032;2023-07-29T12:31:21;25.10;55.90
37322;DHT22;23697;48.684;9.032;2023-07-29T12:33:48;25.10;57.00
37322;DHT22;23697;48.684;9.032;2023-07-29T12:36:15;25.20;56.70
37322;DHT22;23697;48.684;9.032;2023-07-29T12:38:44;25.60;57.10
37322;DHT22;23697;48.684;9.032;2023-07-29T12:41:11;25.90;57.80
37322;DHT22;23697;48.684;9.032;2023-07-29T12:43:37;26.10;57.60
37322;DHT22;23697;48.684;9.032;2023-07-29T12:46:04;26.10;56.00
37322;DHT22;23697;48.684;9.032;2023-07-29T12:48:31;25.90;56.70
37322;DHT22;23697;48.684;9.032;2023-07-29T12:50:57;25.90;55.00
37322;DHT22;23697;48.684;9.032;2023-07-29T12:53:24;25.70;56.10
37322;DHT22;23697;48.684;9.032;2023-07-29T12:55:52;25.70;56.70
37322;DHT22;23697;48.684;9.032;2023-07-29T12:58:18;25.90;58.40
37322;DHT22;23697;48.684;9.032;2023-07-29T13:00:45;25.70;55.40
37322;DHT22;23697;48.684;9.032;2023-07-29T13:03:12;25.50;57.80
37322;DHT22;23697;48.684;9.032;2023-07-29T13:05:39;25.20;56.90
37322;DHT22;23697;48.684;9.032;2023-07-29T13:08:05;25.30;55.40
37322;DHT22;23697;48.684;9.032;2023-07-29T13:10:32;25.40;56.40
37322;DHT22;23697;48.684;9.032;2023-07-29T13:13:00;25.40;54.90
37322;DHT22;23697;48.684;9.032;2023-07-29T13:15:27;25.40;55.70
37322;DHT22;23697;48.684;9.032;2023-07-29T13:17:53;25.40;55.50
37322;DHT22;23697;48.684;9.032;2023-07-29T13:20:20;25.30;54.10
37322;DHT22;23697;48.684;9.032;2023-07-29T13:22:46;25.40;53.40
37322;DHT22;23697;48.684;9.032;2023-07-29T13:25:13;25.30;55.60
37322;DHT22;23697;48.684;9.032;2023-07-29T13:27:40;25.20;55.40
37322;DHT22;23697;48.684;9.032;2023-07-29T13:30:08;25.20;54.20
37322;DHT22;23697;48.684;9.032;2023-07-29T13:32:35;25.10;57.30
37322;DHT22;23697;48.684;9.032;2023-07-29T13:35:02;25.10;55.60
37322;DHT22;23697;48.684;9.032;2023-07-29T13:37:28;25.10;53.70
37322;DHT22;23697;48.684;9.032;2023-07-29T13:39:55;25.10;54.00
37322;DHT22;23697;48.684;9.032;2023-07-29T13:42:22;25.10;55.70
37322;DHT22;23697;48.684;9.032;2023-07-29T13:44:48;25.10;52.90
37322;DHT22;23697;48.684;9.032;2023-07-29T13:47:16;25.20;52.90
37322;DHT22;23697;48.684;9.032;2023-07-29T13:49:43;25.10;52.80
37322;DHT22;23697;48.684;9.032;2023-07-29T13:52:10;24.90;53.40
37322;DHT22;23697;48.684;9.032;2023-07-29T13:54:36;24.90;54.20
37322;DHT22;23697;48.684;9.032;2023-07-29T13:57:04;24.80;54.10
37322;DHT22;23697;48.684;9.032;2023-07-29T13:59:32;24.90;55.50
37322;DHT22;23697;48.684;9.032;2023-07-29T14:01:58;25.10;55.00
37322;DHT22;23697;48.684;9.032;2023-07-29T14:04:26;25.00;54.30
37322;DHT22;23697;48.684;9.032;2023-07-29T14:06:55;25.00;54.40
37322;DHT22;23697;48.684;9.032;2023-07-29T14:09:21;24.90;57.20
37322;DHT22;23697;48.684;9.032;2023-07-29T14:11:48;24.80;54.10
37322;DHT22;23697;48.684;9.032;2023-07-29T14:14:14;24.70;57.70
37322;DHT22;23697;48.684;9.032;2023-07-29T14:16:41;24.60;55.80
37322;DHT22;23697;48.684;9.032;2023-07-29T14:19:08;24.70;56.70
37322;DHT22;23697;48.684;9.032;2023-07-29T14:21:36;24.60;55.50
37322;DHT22;23697;48.684;9.032;2023-07-29T14:24:02;24.60;54.90
37322;DHT22;23697;48.684;9.032;2023-07-29T14:26:29;24.70;55.10
37322;DHT22;23697;48.684;9.032;2023-07-29T14:28:56;25.30;58.50
37322;DHT22;23697;48.684;9.032;2023-07-29T14:31:22;25.70;56.10
37322;DHT22;23697;48.684;9.032;2023-07-29T14:33:49;25.70;53.80
37322;DHT22;23697;48.684;9.032;2023-07-29T14:36:15;25.60;52.90
37322;DHT22;23697;48.684;9.032;2023-07-29T14:38:43;25.60;53.40
37322;DHT22;23697;48.684;9.032;2023-07-29T14:41:10;25.60;54.70
37322;DHT22;23697;48.684;9.032;2023-07-29T14:43:37;25.30;55.00
37322;DHT22;23697;48.684;9.032;2023-07-29T14:46:03;25.10;52.90
37322;DHT22;23697;48.684;9.032;2023-07-29T14:48:30;25.00;55.70
37322;DHT22;23697;48.684;9.032;2023-07-29T14:50:57;25.00;54.30
37322;DHT22;23697;48.684;9.032;2023-07-29T14:53:23;24.90;56.30
37322;DHT22;23697;48.684;9.032;2023-07-29T14:55:51;24.80;55.50
37322;DHT22;23697;48.684;9.032;2023-07-29T14:58:19;24.80;56.10
37322;DHT22;23697;48.684;9.032;2023-07-29T15:00:46;24.90;55.30
37322;DHT22;23697;48.684;9.032;2023-07-29T15:34:24;24.50;57.70
37322;DHT22;23697;48.684;9.032;2023-07-29T15:37:17;24.70;57.20
37322;DHT22;23697;48.684;9.032;2023-07-29T15:39:48;24.80;55.70
37322;DHT22;23697;48.684;9.032;2023-07-29T15:42:27;24.80;56.20
37322;DHT22;23697;48.684;9.032;2023-07-29T15:45:09;25.00;55.60
37322;DHT22;23697;48.684;9.032;2023-07-29T15:47:39;25.10;55.40
37322;DHT22;23697;48.684;9.032;2023-07-29T15:50:21;24.80;56.80
37322;DHT22;23697;48.684;9.032;2023-07-29T15:53:18;24.60;56.00
37322;DHT22;23697;48.684;9.032;2023-07-29T15:56:11;24.40;56.50
37322;DHT22;23697;48.684;9.032;2023-07-29T15:58:51;24.40;57.80
37322;DHT22;23697;48.684;9.032;2023-07-29T16:01:23;24.70;56.30
37322;DHT22;23697;48.684;9.032;2023-07-29T16:03:50;25.10;56.60
37322;DHT22;23697;48.684;9.032;2023-07-29T16:06:18;25.10;55.70
37322;DHT22;23697;48.684;9.032;2023-07-29T16:08:47;24.90;55.80
37322;DHT22;23697;48.684;9.032;2023-07-29T16:11:31;25.10;55.30
37322;DHT22;23697;48.684;9.032;2023-07-29T16:14:12;25.20;54.20
37322;DHT22;23697;48.684;9.032;2023-07-29T16:17:05;25.40;54.00
37322;DHT22;23697;48.684;9.032;2023-07-29T16:19:51;25.60;53.20
37322;DHT22;23697;48.684;9.032;2023-07-29T16:22:34;25.80;54.70
37322;DHT22;23697;48.684;9.032;2023-07-29T16:25:30;26.00;54.60
37322;DHT22;23697;48.684;9.032;2023-07-29T16:28:07;26.10;54.60
37322;DHT22;23697;48.684;9.032;2023-07-29T16:30:44;26.10;54.30
37322;DHT22;23697;48.684;9.032;2023-07-29T16:33:28;25.80;54.20
37322;DHT22;23697;48.684;9.032;2023-07-29T16:35:59;25.70;55.20
37322;DHT22;23697;48.684;9.032;2023-07-29T16:45:04;25.10;55.80
37322;DHT22;23697;48.684;9.032;2023-07-29T16:47:37;24.70;56.80
37322;DHT22;23697;48.684;9.032;2023-07-29T16:50:07;24.60;57.80
37322;DHT22;23697;48.684;9.032;2023-07-29T16:52:45;24.20;58.00
37322;DHT22;23697;48.684;9.032;2023-07-29T16:55:22;24.10;58.30
37322;DHT22;23697;48.684;9.032;2023-07-29T17:00:43;23.80;60.30
37322;DHT22;23697;48.684;9.032;2023-07-29T17:03:17;23.70;59.70
37322;DHT22;23697;48.684;9.032;2023-07-29T17:05:57;23.50;64.50
37322;DHT22;23697;48.684;9.032;2023-07-29T17:08:24;23.20;67.40
37322;DHT22;23697;48.684;9.032;2023-07-29T17:10:50;22.90;69.40
37322;DHT22;23697;48.684;9.032;2023-07-29T17:13:17;22.50;70.70
37322;DHT22;23697;48.684;9.032;2023-07-29T17:15:53;21.90;73.50
37322;DHT22;23697;48.684;9.032;2023-07-29T18:24:27;19.30;88.30
37322;DHT22;23697;48.684;9.032;2023-07-29T18:26:54;19.40;88.30
37322;DHT22;23697;48.684;9.032;2023-07-29T18:29:20;19.30;88.30
37322;DHT22;23697;48.684;9.032;2023-07-29T18:47:20;19.10;88.20
37322;DHT22;23697;48.684;9.032;2023-07-29T20:16:32;18.50;89.20
37322;DHT22;23697;48.684;9.032;2023-07-29T20:19:13;18.50;89.10
37322;DHT22;23697;48.684;9.032;2023-07-29T20:21:52;18.50;89.10
37322;DHT22;23697;48.684;9.032;2023-07-29T20:24:23;18.40;89.20
37322;DHT22;23697;48.684;9.032;2023-07-29T20:26:56;18.40;89.20
37322;DHT22;23697;48.684;9.032;2023-07-29T20:29:26;18.50;89.00
37322;DHT22;23697;48.684;9.032;2023-07-29T20:31:57;18.50;89.00
37322;DHT22;23697;48.684;9.032;2023-07-29T20:34:29;18.50;89.10
37322;DHT22;23697;48.684;9.032;2023-07-29T20:37:01;18.40;89.10
37322;DHT22;23697;48.684;9.032;2023-07-29T20:39:41;18.40;89.10
37322;DHT22;23697;48.684;9.032;2023-07-29T20:42:18;18.30;89.10
37322;DHT22;23697;48.684;9.032;2023-07-29T20:45:02;18.30;89.20
37322;DHT22;23697;48.684;9.032;2023-07-29T20:47:34;18.20;89.20
37322;DHT22;23697;48.684;9.032;2023-07-29T20:50:08;18.30;89.10
37322;DHT22;23697;48.684;9.032;2023-07-29T20:53:12;18.30;89.20
37322;DHT22;23697;48.684;9.032;2023-07-29T20:55:56;18.30;89.10
37322;DHT22;23697;48.684;9.032;2023-07-29T20:58:29;18.20;89.20
37322;DHT22;23697;48.684;9.032;2023-07-29T21:01:00;18.20;89.20
37322;DHT22;23697;48.684;9.032;2023-07-29T21:03:32;18.20;89.30
37322;DHT22;23697;48.684;9.032;2023-07-29T21:05:59;18.10;89.30
37322;DHT22;23697;48.684;9.032;2023-07-29T21:08:25;18.20;89.30
37322;DHT22;23697;48.684;9.032;2023-07-29T21:10:52;18.10;89.40
37322;DHT22;23697;48.684;9.032;2023-07-29T21:13:20;18.10;89.40
37322;DHT22;23697;48.684;9.032;2023-07-29T21:15:50;18.10;89.50
37322;DHT22;23697;48.684;9.032;2023-07-29T21:18:17;18.10;89.50
37322;DHT22;23697;48.684;9.032;2023-07-29T21:20:48;18.10;89.50
37322;DHT22;23697;48.684;9.032;2023-07-29T21:23:17;18.10;89.50
37322;DHT22;23697;48.684;9.032;2023-07-29T21:25:47;18.10;89.60
37322;DHT22;23697;48.684;9.032;2023-07-29T21:28:14;18.10;89.60
37322;DHT22;23697;48.684;9.032;2023-07-29T21:30:41;18.10;89.60
37322;DHT22;23697;48.684;9.032;2023-07-29T21:33:08;18.10;89.70
37322;DHT22;23697;48.684;9.032;2023-07-29T21:35:35;18.10;89.70
37322;DHT22;23697;48.684;9.032;2023-07-29T21:38:16;18.10;89.70
37322;DHT22;23697;48.684;9.032;2023-07-29T21:40:47;18.10;89.70
37322;DHT22;23697;48.684;9.032;2023-07-29T21:43:14;18.10;89.80
37322;DHT22;23697;48.684;9.032;2023-07-29T21:45:41;18.10;89.80
37322;DHT22;23697;48.684;9.032;2023-07-29T21:48:08;18.10;89.80
37322;DHT22;23697;48.684;9.032;2023-07-29T21:50:34;18.10;89.70
37322;DHT22;23697;48.684;9.032;2023-07-29T21:53:01;18.10;89.70
37322;DHT22;23697;48.684;9.032;2023-07-29T21:55:29;18.10;89.70
37322;DHT22;23697;48.684;9.032;2023-07-29T21:57:58;18.10;89.60
37322;DHT22;23697;48.684;9.032;2023-07-29T22:03:09;18.10;89.60
37322;DHT22;23697;48.684;9.032;2023-07-29T22:05:36;18.10;89.60
37322;DHT22;23697;48.684;9.032;2023-07-29T22:08:05;18.10;89.60
37322;DHT22;23697;48.684;9.032;2023-07-29T22:10:38;18.10;89.60
37322;DHT22;23697;48.684;9.032;2023-07-29T22:13:08;18.10;89.60
37322;DHT22;23697;48.684;9.032;2023-07-29T22:15:35;18.10;89.60
37322;DHT22;23697;48.684;9.032;2023-07-29T22:18:02;18.10;89.60
37322;DHT22;23697;48.684;9.032;2023-07-29T22:20:29;18.10;89.70
37322;DHT22;23697;48.684;9.032;2023-07-29T22:22:55;18.10;89.70
37322;DHT22;23697;48.684;9.032;2023-07-29T22:25:22;18.10;89.80
37322;DHT22;23697;48.684;9.032;2023-07-29T22:27:50;18.20;89.80
37322;DHT22;23697;48.684;9.032;2023-07-29T22:30:19;18.20;89.90
37322;DHT22;23697;48.684;9.032;2023-07-29T22:32:46;18.20;89.90
37322;DHT22;23697;48.684;9.032;2023-07-29T22:35:13;18.20;89.90
37322;DHT22;23697;48.684;9.032;2023-07-29T22:37:40;18.20;90.00
37322;DHT22;23697;48.684;9.032;2023-07-29T22:40:07;18.20;90.00
37322;DHT22;23697;48.684;9.032;2023-07-29T22:42:34;18.20;90.10
37322;DHT22;23697;48.684;9.032;2023-07-29T22:45:06;18.20;90.10
37322;DHT22;23697;48.684;9.032;2023-07-29T22:47:37;18.30;90.10
37322;DHT22;23697;48.684;9.032;2023-07-29T22:50:04;18.20;90.10
37322;DHT22;23697;48.684;9.032;2023-07-29T22:52:33;18.20;90.10
